createdAt,value
2019-01-05T00:00:13.471Z,11.8
2019-01-05T00:01:02.248Z,11.8
2019-01-05T00:01:52.858Z,11.8
2019-01-05T00:02:43.758Z,11.8
2019-01-05T00:03:33.530Z,11.8
2019-01-05T00:04:23.506Z,11.8
2019-01-05T00:05:13.651Z,11.8
2019-01-05T00:06:03.895Z,11.8
2019-01-05T00:06:53.943Z,11.8
2019-01-05T00:07:44.045Z,11.8
2019-01-05T00:08:33.798Z,11.8
2019-01-05T00:09:23.591Z,11.8
2019-01-05T00:10:13.858Z,11.9
2019-01-05T00:11:03.746Z,11.9
2019-01-05T00:11:54.593Z,11.9
2019-01-05T00:12:43.813Z,11.9
2019-01-05T00:13:34.467Z,11.9
2019-01-05T00:14:23.716Z,11.9
2019-01-05T00:15:15.936Z,11.9
2019-01-05T00:33:27.995Z,12.1
2019-01-05T00:34:18.325Z,12.1
2019-01-05T00:35:07.487Z,12.1
2019-01-05T00:35:56.752Z,12.2
2019-01-05T00:36:46.827Z,12.1
2019-01-05T00:37:38.042Z,12.2
2019-01-05T00:38:28.351Z,12.2
2019-01-05T00:39:17.348Z,12.2
2019-01-05T00:40:08.234Z,12.3
2019-01-05T00:40:58.247Z,12.2
2019-01-05T00:41:47.191Z,12.3
2019-01-05T00:42:38.380Z,12.3
2019-01-05T00:43:27.886Z,12.3
2019-01-05T00:44:17.374Z,12.3
2019-01-05T00:45:08.806Z,12.3
2019-01-05T00:45:58.831Z,12.3
2019-01-05T00:46:48.081Z,12.3
2019-01-05T00:47:38.438Z,12.3
2019-01-05T00:48:29.331Z,12.3
2019-01-05T00:49:18.243Z,12.3
2019-01-05T00:50:08.336Z,12.4
2019-01-05T00:50:59.010Z,12.4
2019-01-05T00:51:49.571Z,12.4
2019-01-05T00:52:38.508Z,12.4
2019-01-05T00:53:28.550Z,12.4
2019-01-05T00:54:19.426Z,12.4
2019-01-05T00:55:09.293Z,12.4
2019-01-05T00:55:59.863Z,12.4
2019-01-05T00:56:49.358Z,12.4
2019-01-05T00:57:39.645Z,12.4
2019-01-05T00:58:28.892Z,12.4
2019-01-05T00:59:19.838Z,12.4
2019-01-05T01:00:09.570Z,12.5
2019-01-05T01:00:59.918Z,12.5
2019-01-05T01:01:49.678Z,12.5
2019-01-05T01:02:40.328Z,12.5
2019-01-05T01:03:28.140Z,12.5
2019-01-05T01:04:19.775Z,12.5
2019-01-05T01:05:09.083Z,12.5
2019-01-05T01:05:59.952Z,12.6
2019-01-05T01:06:50.017Z,12.6
2019-01-05T01:07:39.750Z,12.6
2019-01-05T01:08:29.885Z,12.6
2019-01-05T01:09:35.828Z,12.6
2019-01-05T01:10:10.562Z,12.6
2019-01-05T01:11:00.544Z,12.6
2019-01-05T01:11:50.562Z,12.6
2019-01-05T01:12:39.286Z,12.6
2019-01-05T01:13:30.476Z,12.6
2019-01-05T01:14:20.827Z,12.6
2019-01-05T01:15:10.039Z,12.7
2019-01-05T01:16:00.974Z,12.7
2019-01-05T01:16:49.035Z,12.7
2019-01-05T01:17:40.211Z,12.7
2019-01-05T01:18:31.663Z,12.7
2019-01-05T01:19:21.133Z,12.7
2019-01-05T01:20:11.291Z,12.7
2019-01-05T01:21:01.271Z,12.7
2019-01-05T01:21:51.801Z,12.8
2019-01-05T01:22:41.609Z,12.8
2019-01-05T01:23:31.144Z,12.8
2019-01-05T01:24:20.127Z,12.8
2019-01-05T01:25:11.569Z,12.8
2019-01-05T01:26:00.699Z,12.8
2019-01-05T01:26:51.314Z,12.8
2019-01-05T01:27:41.678Z,12.8
2019-01-05T01:28:30.752Z,12.8
2019-01-05T01:29:21.556Z,12.8
2019-01-05T01:30:12.486Z,12.9
2019-01-05T01:31:02.428Z,12.9
2019-01-05T01:31:52.268Z,12.9
2019-01-05T01:32:41.848Z,12.9
2019-01-05T01:33:32.337Z,12.9
2019-01-05T01:34:22.420Z,12.9
2019-01-05T01:35:11.995Z,12.9
2019-01-05T01:36:02.498Z,12.9
2019-01-05T01:36:51.958Z,12.9
2019-01-05T01:37:42.038Z,12.9
2019-01-05T01:38:32.115Z,12.9
2019-01-05T01:39:21.865Z,12.9
2019-01-05T01:40:12.515Z,13
2019-01-05T01:41:02.805Z,13
2019-01-05T01:41:52.905Z,13
2019-01-05T01:42:42.154Z,13.1
2019-01-05T01:43:32.983Z,13
2019-01-05T01:44:22.851Z,13.1
2019-01-05T01:45:11.750Z,13.1
2019-01-05T01:46:03.228Z,13.1
2019-01-05T01:46:52.653Z,13.1
2019-01-05T01:47:42.227Z,13.1
2019-01-05T01:48:33.573Z,13.1
2019-01-05T01:49:23.390Z,13.1
2019-01-05T01:50:13.962Z,13.1
2019-01-05T01:51:03.265Z,13.1
2019-01-05T01:51:52.448Z,13.1
2019-01-05T01:52:43.927Z,13.1
2019-01-05T01:53:34.482Z,13.1
2019-01-05T01:54:24.005Z,13.1
2019-01-05T01:55:13.279Z,13.2
2019-01-05T01:56:03.527Z,13.2
2019-01-05T01:56:53.062Z,13.2
2019-01-05T01:57:43.177Z,13.2
2019-01-05T01:58:34.052Z,13.3
2019-01-05T01:59:24.354Z,13.2
2019-01-05T02:00:13.847Z,13.3
2019-01-05T02:01:04.525Z,13.3
2019-01-05T02:01:53.151Z,13.3
2019-01-05T02:02:43.999Z,13.3
2019-01-05T02:03:34.389Z,13.3
2019-01-05T02:04:23.574Z,13.3
2019-01-05T02:05:14.199Z,13.3
2019-01-05T02:06:04.759Z,13.3
2019-01-05T02:06:54.902Z,13.3
2019-01-05T02:07:44.376Z,13.3
2019-01-05T02:08:35.283Z,13.3
2019-01-05T02:09:24.784Z,13.3
2019-01-05T02:10:14.594Z,13.4
2019-01-05T02:11:05.441Z,13.4
2019-01-05T02:11:55.188Z,13.4
2019-01-05T02:12:44.961Z,13.4
2019-01-05T02:13:35.661Z,13.4
2019-01-05T02:14:24.301Z,13.4
2019-01-05T02:15:15.183Z,13.4
2019-01-05T02:16:05.215Z,13.4
2019-01-05T02:16:55.228Z,13.4
2019-01-05T02:17:45.310Z,13.4
2019-01-05T02:18:37.213Z,13.4
2019-01-05T02:19:24.596Z,13.4
2019-01-05T02:20:15.218Z,13.4
2019-01-05T02:21:04.498Z,13.5
2019-01-05T02:21:55.563Z,13.5
2019-01-05T02:22:45.624Z,13.5
2019-01-05T02:23:35.453Z,13.5
2019-01-05T02:24:26.049Z,13.5
2019-01-05T02:25:15.562Z,13.5
2019-01-05T02:26:05.630Z,13.5
2019-01-05T02:26:55.711Z,13.6
2019-01-05T02:27:46.313Z,13.6
2019-01-05T02:28:35.270Z,13.6
2019-01-05T02:29:25.557Z,13.6
2019-01-05T02:30:16.011Z,13.6
2019-01-05T02:31:05.860Z,13.6
2019-01-05T02:31:55.675Z,13.6
2019-01-05T02:32:46.130Z,13.6
2019-01-05T02:33:36.695Z,13.6
2019-01-05T02:34:26.800Z,13.6
2019-01-05T02:35:16.589Z,13.6
2019-01-05T02:36:06.154Z,13.6
2019-01-05T02:36:55.640Z,13.6
2019-01-05T02:37:46.565Z,13.6
2019-01-05T02:38:35.477Z,13.6
2019-01-05T02:39:27.289Z,13.7
2019-01-05T02:40:16.382Z,13.7
2019-01-05T02:41:07.049Z,13.7
2019-01-05T02:41:57.124Z,13.7
2019-01-05T02:42:47.905Z,13.7
2019-01-05T02:43:37.167Z,13.7
2019-01-05T02:44:26.353Z,13.7
2019-01-05T02:45:17.576Z,13.8
2019-01-05T02:46:07.112Z,13.8
2019-01-05T02:46:57.307Z,13.8
2019-01-05T02:47:47.229Z,13.8
2019-01-05T02:48:36.909Z,13.8
2019-01-05T02:49:28.138Z,13.8
2019-01-05T02:50:17.347Z,13.8
2019-01-05T02:51:07.048Z,13.8
2019-01-05T02:51:58.511Z,13.8
2019-01-05T02:52:48.334Z,13.8
2019-01-05T02:53:38.048Z,13.8
2019-01-05T02:54:27.291Z,13.8
2019-01-05T02:55:17.596Z,13.8
2019-01-05T02:56:07.364Z,13.8
2019-01-05T02:56:57.733Z,13.8
2019-01-05T02:57:49.027Z,13.8
2019-01-05T02:58:37.838Z,13.8
2019-01-05T02:59:27.854Z,13.8
2019-01-05T03:00:18.252Z,13.8
2019-01-05T03:01:08.884Z,13.8
2019-01-05T03:01:57.228Z,13.8
2019-01-05T03:02:48.466Z,13.8
2019-01-05T03:03:38.543Z,13.9
2019-01-05T03:04:28.517Z,13.9
2019-01-05T03:05:18.057Z,13.9
2019-01-05T03:06:08.348Z,13.9
2019-01-05T03:06:57.882Z,13.9
2019-01-05T03:07:49.435Z,13.9
2019-01-05T03:08:39.060Z,13.9
2019-01-05T03:09:29.188Z,13.9
2019-01-05T03:10:18.651Z,13.9
2019-01-05T03:11:07.293Z,13.9
2019-01-05T03:11:59.053Z,13.9
2019-01-05T03:12:49.937Z,13.9
2019-01-05T03:13:38.915Z,13.9
2019-01-05T03:14:29.600Z,13.9
2019-01-05T03:15:19.540Z,13.9
2019-01-05T03:16:09.042Z,13.9
2019-01-05T03:16:58.035Z,13.9
2019-01-05T03:17:50.328Z,13.9
2019-01-05T03:18:40.122Z,13.9
2019-01-05T03:19:29.364Z,13.9
2019-01-05T03:20:19.650Z,14
2019-01-05T03:21:09.980Z,14
2019-01-05T03:21:59.717Z,14
2019-01-05T03:22:49.747Z,14
2019-01-05T03:23:40.222Z,14
2019-01-05T03:24:28.761Z,14
2019-01-05T03:25:19.434Z,14
2019-01-05T03:26:09.179Z,14
2019-01-05T03:27:00.064Z,14
2019-01-05T03:27:49.888Z,14
2019-01-05T03:28:40.167Z,14
2019-01-05T03:29:29.677Z,14.1
2019-01-05T03:30:20.970Z,14.1
2019-01-05T03:31:11.458Z,14.1
2019-01-05T03:31:59.760Z,14.1
2019-01-05T03:32:51.331Z,14.1
2019-01-05T03:33:40.319Z,14.1
2019-01-05T03:34:30.571Z,14.1
2019-01-05T03:35:20.363Z,14.1
2019-01-05T03:36:10.388Z,14.1
2019-01-05T03:37:00.236Z,14.1
2019-01-05T03:37:51.094Z,14.1
2019-01-05T03:38:40.331Z,14.1
2019-01-05T03:39:29.878Z,14.1
2019-01-05T03:40:22.027Z,14.1
2019-01-05T03:41:10.473Z,14.1
2019-01-05T03:42:01.353Z,14.1
2019-01-05T03:42:51.471Z,14.1
2019-01-05T03:43:40.927Z,14.1
2019-01-05T03:44:31.251Z,14.1
2019-01-05T03:45:21.040Z,14.1
2019-01-05T03:46:10.635Z,14.1
2019-01-05T03:47:01.455Z,14.2
2019-01-05T03:47:50.330Z,14.2
2019-01-05T03:48:42.379Z,14.2
2019-01-05T03:49:31.332Z,14.2
2019-01-05T03:50:22.207Z,14.2
2019-01-05T03:51:12.195Z,14.2
2019-01-05T03:52:00.663Z,14.2
2019-01-05T03:52:51.245Z,14.2
2019-01-05T03:53:41.295Z,14.3
2019-01-05T03:54:31.893Z,14.2
2019-01-05T03:55:22.567Z,14.2
2019-01-05T03:56:11.458Z,14.3
2019-01-05T03:57:01.800Z,14.3
2019-01-05T03:57:52.180Z,14.3
2019-01-05T03:58:41.346Z,14.3
2019-01-05T03:59:32.500Z,14.3
2019-01-05T04:00:21.835Z,14.3
2019-01-05T04:01:12.921Z,14.3
2019-01-05T04:02:02.415Z,14.3
2019-01-05T04:02:52.827Z,14.3
2019-01-05T04:03:42.769Z,14.3
2019-01-05T04:04:33.432Z,14.3
2019-01-05T04:05:22.684Z,14.4
2019-01-05T04:06:12.156Z,14.4
2019-01-05T04:07:02.501Z,14.4
2019-01-05T04:07:52.355Z,14.4
2019-01-05T04:08:42.639Z,14.4
2019-01-05T04:09:32.699Z,14.4
2019-01-05T04:10:22.700Z,14.4
2019-01-05T04:11:11.911Z,14.4
2019-01-05T04:12:03.660Z,14.4
2019-01-05T04:12:52.372Z,14.4
2019-01-05T04:13:43.741Z,14.5
2019-01-05T04:14:32.451Z,14.5
2019-01-05T04:15:23.868Z,14.5
2019-01-05T04:16:13.364Z,14.5
2019-01-05T04:17:03.168Z,14.5
2019-01-05T04:17:53.821Z,14.6
2019-01-05T04:18:42.996Z,14.6
2019-01-05T04:19:33.888Z,14.6
2019-01-05T04:20:21.991Z,14.6
2019-01-05T04:21:12.900Z,14.6
2019-01-05T04:22:03.501Z,14.6
2019-01-05T04:22:54.059Z,14.6
2019-01-05T04:23:43.322Z,14.6
2019-01-05T04:24:34.222Z,14.6
2019-01-05T04:25:25.024Z,14.6
2019-01-05T04:26:13.243Z,14.6
2019-01-05T04:27:04.678Z,14.7
2019-01-05T04:27:54.177Z,14.7
2019-01-05T04:28:43.969Z,14.7
2019-01-05T04:29:34.320Z,14.7
2019-01-05T04:30:25.915Z,14.7
2019-01-05T04:31:14.685Z,14.7
2019-01-05T04:32:02.831Z,14.8
2019-01-05T04:32:54.800Z,14.8
2019-01-05T04:33:43.737Z,14.8
2019-01-05T04:34:34.418Z,14.8
2019-01-05T04:35:24.130Z,14.8
2019-01-05T04:36:14.258Z,14.8
2019-01-05T04:37:04.538Z,14.8
2019-01-05T04:37:54.959Z,14.8
2019-01-05T04:38:44.617Z,14.8
2019-01-05T04:39:34.982Z,14.8
2019-01-05T04:40:25.493Z,14.8
2019-01-05T04:41:15.209Z,14.9
2019-01-05T04:42:05.764Z,14.9
2019-01-05T04:42:53.810Z,14.9
2019-01-05T04:43:45.310Z,14.9
2019-01-05T04:44:34.845Z,14.9
2019-01-05T04:45:26.414Z,14.9
2019-01-05T05:02:46.439Z,15.1
2019-01-05T05:03:34.874Z,15.1
2019-01-05T05:04:24.661Z,15.1
2019-01-05T05:05:15.280Z,15.1
2019-01-05T05:06:04.988Z,15.1
2019-01-05T05:06:55.120Z,15.1
2019-01-05T05:07:46.137Z,15.1
2019-01-05T05:08:35.503Z,15.1
2019-01-05T05:09:23.893Z,15.1
2019-01-05T05:10:15.653Z,15.1
2019-01-05T05:11:04.455Z,15.1
2019-01-05T05:11:54.895Z,15.1
2019-01-05T05:12:46.155Z,15.2
2019-01-05T05:13:35.202Z,15.1
2019-01-05T05:14:25.056Z,15.2
2019-01-05T05:15:15.679Z,15.2
2019-01-05T05:16:06.033Z,15.2
2019-01-05T05:16:55.576Z,15.2
2019-01-05T05:17:46.317Z,15.2
2019-01-05T05:18:36.717Z,15.2
2019-01-05T05:19:25.081Z,15.2
2019-01-05T05:20:16.853Z,15.2
2019-01-05T05:21:05.226Z,15.2
2019-01-05T05:21:55.404Z,15.2
2019-01-05T05:22:45.988Z,15.2
2019-01-05T05:23:36.034Z,15.2
2019-01-05T05:24:26.031Z,15.2
2019-01-05T05:25:16.860Z,15.2
2019-01-05T05:26:05.890Z,15.2
2019-01-05T05:26:55.654Z,15.2
2019-01-05T05:27:46.079Z,15.1
2019-01-05T05:28:37.204Z,15.1
2019-01-05T05:29:25.734Z,15.1
2019-01-05T05:30:16.734Z,15.1
2019-01-05T05:31:06.546Z,15.1
2019-01-05T05:31:57.022Z,15.1
2019-01-05T05:32:46.704Z,15.1
2019-01-05T05:33:36.588Z,15.1
2019-01-05T05:34:27.217Z,15.1
2019-01-05T05:35:16.960Z,15
2019-01-05T05:36:06.471Z,15
2019-01-05T05:36:56.570Z,15
2019-01-05T05:37:47.696Z,15
2019-01-05T05:38:36.933Z,14.9
2019-01-05T05:39:27.550Z,14.9
2019-01-05T05:40:17.124Z,14.9
2019-01-05T05:41:06.847Z,14.9
2019-01-05T05:41:57.349Z,14.9
2019-01-05T05:42:46.891Z,14.9
2019-01-05T05:43:38.606Z,14.9
2019-01-05T05:44:28.496Z,14.8
2019-01-05T05:45:17.734Z,14.8
2019-01-05T05:46:07.986Z,14.8
2019-01-05T05:46:57.056Z,14.8
2019-01-05T05:47:48.042Z,14.8
2019-01-05T05:48:37.351Z,14.7
2019-01-05T05:49:28.830Z,14.7
2019-01-05T05:50:17.175Z,14.7
2019-01-05T05:51:07.798Z,14.6
2019-01-05T05:51:58.491Z,14.6
2019-01-05T05:52:48.813Z,14.6
2019-01-05T05:53:37.991Z,14.6
2019-01-05T05:54:26.985Z,14.6
2019-01-05T05:55:18.111Z,14.5
2019-01-05T05:56:07.843Z,14.5
2019-01-05T05:56:58.937Z,14.5
2019-01-05T05:57:47.981Z,14.4
2019-01-05T05:58:38.364Z,14.4
2019-01-05T05:59:28.437Z,14.4
2019-01-05T06:00:18.150Z,14.4
2019-01-05T06:01:09.017Z,14.4
2019-01-05T06:01:58.057Z,14.4
2019-01-05T06:02:48.264Z,14.3
2019-01-05T06:03:39.463Z,14.3
2019-01-05T06:04:29.544Z,14.3
2019-01-05T06:05:19.017Z,14.3
2019-01-05T06:06:09.357Z,14.3
2019-01-05T06:06:58.289Z,14.2
2019-01-05T06:07:48.322Z,14.2
2019-01-05T06:08:39.472Z,14.2
2019-01-05T06:09:29.372Z,14.1
2019-01-05T06:10:19.614Z,14.1
2019-01-05T06:11:09.742Z,14.1
2019-01-05T06:11:59.766Z,14.1
2019-01-05T06:12:49.480Z,14.1
2019-01-05T06:13:39.324Z,14
2019-01-05T06:14:30.657Z,14
2019-01-05T06:15:20.284Z,13.9
2019-01-05T06:16:09.171Z,13.9
2019-01-05T06:16:58.431Z,13.9
2019-01-05T06:17:49.561Z,13.9
2019-01-05T06:18:39.341Z,13.9
2019-01-05T06:19:30.806Z,13.9
2019-01-05T06:20:19.483Z,13.8
2019-01-05T06:21:10.079Z,13.8
2019-01-05T06:21:59.613Z,13.8
2019-01-05T06:22:50.426Z,13.8
2019-01-05T06:23:40.474Z,13.8
2019-01-05T06:24:30.637Z,13.8
2019-01-05T06:25:20.928Z,13.7
2019-01-05T06:26:10.717Z,13.7
2019-01-05T06:27:00.177Z,13.6
2019-01-05T06:27:49.754Z,13.6
2019-01-05T06:28:41.354Z,13.6
2019-01-05T06:29:30.394Z,13.6
2019-01-05T06:30:20.406Z,13.6
2019-01-05T06:31:11.030Z,13.6
2019-01-05T06:31:59.951Z,13.5
2019-01-05T06:32:50.051Z,13.5
2019-01-05T06:33:41.015Z,13.5
2019-01-05T06:34:31.626Z,13.5
2019-01-05T06:35:20.619Z,13.4
2019-01-05T06:36:10.609Z,13.4
2019-01-05T06:37:01.163Z,13.4
2019-01-05T06:37:50.371Z,13.4
2019-01-05T06:38:41.586Z,13.4
2019-01-05T06:39:30.813Z,13.4
2019-01-05T06:40:21.376Z,13.3
2019-01-05T06:41:12.268Z,13.3
2019-01-05T06:42:00.946Z,13.3
2019-01-05T06:42:51.568Z,13.3
2019-01-05T06:43:41.323Z,13.3
2019-01-05T06:44:32.996Z,13.3
2019-01-05T06:45:22.236Z,13.3
2019-01-05T06:46:11.306Z,13.2
2019-01-05T06:47:01.353Z,13.2
2019-01-05T06:47:51.885Z,13.2
2019-01-05T06:48:42.223Z,13.1
2019-01-05T06:49:32.513Z,13.1
2019-01-05T06:50:22.023Z,13.1
2019-01-05T06:51:12.688Z,13.1
2019-01-05T06:52:02.468Z,13.1
2019-01-05T06:52:51.110Z,13.1
2019-01-05T06:53:42.243Z,13.1
2019-01-05T06:54:31.793Z,13.1
2019-01-05T06:55:23.188Z,13
2019-01-05T06:56:12.150Z,13
2019-01-05T06:57:03.037Z,13
2019-01-05T06:57:52.285Z,13
2019-01-05T06:58:42.340Z,12.9
2019-01-05T06:59:31.862Z,12.9
2019-01-05T07:00:22.395Z,12.9
2019-01-05T07:01:12.308Z,12.9
2019-01-05T07:02:01.797Z,12.9
2019-01-05T07:02:52.953Z,12.8
2019-01-05T07:03:42.509Z,12.8
2019-01-05T07:04:32.527Z,12.8
2019-01-05T07:05:22.825Z,12.8
2019-01-05T07:06:11.732Z,12.8
2019-01-05T07:07:02.432Z,12.8
2019-01-05T07:07:53.230Z,12.8
2019-01-05T07:08:42.782Z,12.8
2019-01-05T07:09:33.350Z,12.8
2019-01-05T07:10:23.689Z,12.7
2019-01-05T07:11:14.174Z,12.7
2019-01-05T07:12:03.272Z,12.7
2019-01-05T07:12:53.574Z,12.6
2019-01-05T07:13:43.984Z,12.6
2019-01-05T07:14:34.314Z,12.6
2019-01-05T07:15:23.781Z,12.6
2019-01-05T07:16:13.534Z,12.6
2019-01-05T07:17:04.734Z,12.6
2019-01-05T07:17:53.888Z,12.6
2019-01-05T07:18:43.697Z,12.6
2019-01-05T07:19:34.041Z,12.6
2019-01-05T07:20:24.301Z,12.5
2019-01-05T07:21:13.916Z,12.5
2019-01-05T07:22:03.193Z,12.5
2019-01-05T07:22:54.716Z,12.5
2019-01-05T07:23:44.286Z,12.4
2019-01-05T07:24:35.191Z,12.4
2019-01-05T07:25:24.473Z,12.4
2019-01-05T07:26:15.023Z,12.4
2019-01-05T07:27:05.096Z,12.4
2019-01-05T07:27:54.868Z,12.3
2019-01-05T07:28:44.630Z,12.3
2019-01-05T07:29:33.858Z,12.3
2019-01-05T07:30:25.318Z,12.3
2019-01-05T07:31:14.550Z,12.3
2019-01-05T07:32:04.610Z,12.3
2019-01-05T07:32:55.518Z,12.3
2019-01-05T07:33:44.691Z,12.3
2019-01-05T07:34:34.491Z,12.2
2019-01-05T07:35:25.364Z,12.2
2019-01-05T07:36:14.860Z,12.2
2019-01-05T07:37:04.922Z,12.2
2019-01-05T07:37:55.260Z,12.2
2019-01-05T07:38:45.038Z,12.1
2019-01-05T07:39:35.222Z,12.1
2019-01-05T07:40:24.885Z,12.1
2019-01-05T07:41:15.417Z,12.1
2019-01-05T07:42:05.512Z,12.1
2019-01-05T07:42:55.060Z,12.1
2019-01-05T07:43:45.767Z,12.1
2019-01-05T07:44:35.975Z,12.1
2019-01-05T07:45:25.546Z,12.1
2019-01-05T07:46:15.072Z,12.1
2019-01-05T07:47:05.662Z,12
2019-01-05T07:47:55.430Z,12
2019-01-05T07:48:46.561Z,12
2019-01-05T07:49:36.364Z,12
2019-01-05T07:50:26.409Z,12
2019-01-05T07:51:16.209Z,11.9
2019-01-05T07:52:06.066Z,11.9
2019-01-05T07:52:56.279Z,11.9
2019-01-05T07:53:46.917Z,11.9
2019-01-05T07:54:36.947Z,11.9
2019-01-05T07:55:26.829Z,11.9
2019-01-05T07:56:16.756Z,11.9
2019-01-05T07:57:06.632Z,11.9
2019-01-05T07:57:56.374Z,11.9
2019-01-05T07:58:46.686Z,11.9
2019-01-05T07:59:37.574Z,11.8
2019-01-05T08:00:27.621Z,11.8
2019-01-05T08:01:16.314Z,11.8
2019-01-05T08:02:06.731Z,11.8
2019-01-05T08:02:57.007Z,11.8
2019-01-05T08:03:47.025Z,11.8
2019-01-05T08:04:36.608Z,11.8
2019-01-05T08:05:26.987Z,11.8
2019-01-05T08:06:17.818Z,11.8
2019-01-05T08:07:07.553Z,11.8
2019-01-05T08:07:57.474Z,11.8
2019-01-05T08:08:46.631Z,11.8
2019-01-05T08:09:37.228Z,11.7
2019-01-05T08:10:27.003Z,11.7
2019-01-05T08:11:16.168Z,11.7
2019-01-05T08:12:07.114Z,11.7
2019-01-05T08:12:57.183Z,11.7
2019-01-05T08:13:47.155Z,11.6
2019-01-05T08:14:37.231Z,11.6
2019-01-05T08:15:28.171Z,11.6
2019-01-05T08:16:18.178Z,11.6
2019-01-05T08:17:07.943Z,11.6
2019-01-05T08:17:57.185Z,11.6
2019-01-05T08:18:48.134Z,11.6
2019-01-05T08:19:37.545Z,11.6
2019-01-05T08:20:27.692Z,11.6
2019-01-05T08:21:17.395Z,11.6
2019-01-05T08:22:08.821Z,11.6
2019-01-05T08:22:58.517Z,11.6
2019-01-05T08:23:48.136Z,11.6
2019-01-05T08:24:38.731Z,11.6
2019-01-05T08:25:27.700Z,11.6
2019-01-05T08:26:17.857Z,11.5
2019-01-05T08:27:08.420Z,11.4
2019-01-05T08:27:58.114Z,11.4
2019-01-05T08:28:49.057Z,11.3
2019-01-05T08:29:38.860Z,11.3
2019-01-05T08:30:28.632Z,11.3
2019-01-05T08:31:19.196Z,11.3
2019-01-05T08:32:09.304Z,11.3
2019-01-05T08:32:58.457Z,11.3
2019-01-05T08:33:49.904Z,11.2
2019-01-05T08:34:38.063Z,11.2
2019-01-05T08:35:29.382Z,11.2
2019-01-05T08:36:18.472Z,11.2
2019-01-05T08:37:07.969Z,11.2
2019-01-05T08:37:58.877Z,11.2
2019-01-05T08:38:48.851Z,11.2
2019-01-05T08:39:39.874Z,11.2
2019-01-05T08:40:29.323Z,11.2
2019-01-05T08:41:18.816Z,11.1
2019-01-05T08:42:10.336Z,11.1
2019-01-05T08:42:58.524Z,11.1
2019-01-05T08:43:49.064Z,11.1
2019-01-05T08:44:38.761Z,11.1
2019-01-05T08:45:29.399Z,11.1
2019-01-05T08:46:19.689Z,11.1
2019-01-05T08:47:09.784Z,11.1
2019-01-05T08:47:59.326Z,11.1
2019-01-05T08:48:49.916Z,11.1
2019-01-05T08:49:39.151Z,11.1
2019-01-05T08:50:30.311Z,11.1
2019-01-05T08:51:20.323Z,11.1
2019-01-05T08:52:09.796Z,11.1
2019-01-05T08:52:59.956Z,11
2019-01-05T08:53:50.191Z,11
2019-01-05T08:54:39.528Z,11
2019-01-05T08:55:29.481Z,11
2019-01-05T08:56:20.108Z,11
2019-01-05T08:57:09.321Z,10.9
2019-01-05T08:57:59.713Z,11
2019-01-05T08:58:50.303Z,10.9
2019-01-05T08:59:41.128Z,10.9
2019-01-05T09:00:31.511Z,10.9
2019-01-05T09:01:19.842Z,10.9
2019-01-05T09:17:11.999Z,10.8
2019-01-05T09:18:02.029Z,10.8
2019-01-05T09:18:51.339Z,10.8
2019-01-05T09:19:41.854Z,10.8
2019-01-05T09:20:32.199Z,10.8
2019-01-05T09:21:21.964Z,10.8
2019-01-05T09:22:12.229Z,10.8
2019-01-05T09:23:02.434Z,10.8
2019-01-05T09:23:52.196Z,10.8
2019-01-05T09:24:41.376Z,10.8
2019-01-05T09:25:32.527Z,10.8
2019-01-05T09:26:22.286Z,10.8
2019-01-05T09:27:12.101Z,10.8
2019-01-05T09:28:02.382Z,10.8
2019-01-05T09:28:52.516Z,10.8
2019-01-05T09:29:42.803Z,10.8
2019-01-05T09:30:31.492Z,10.8
2019-01-05T09:31:22.649Z,10.7
2019-01-05T09:32:12.120Z,10.8
2019-01-05T09:33:02.198Z,10.7
2019-01-05T09:33:52.806Z,10.7
2019-01-05T09:34:43.442Z,10.7
2019-01-05T09:35:32.128Z,10.7
2019-01-05T09:36:23.255Z,10.7
2019-01-05T09:37:12.906Z,10.7
2019-01-05T09:38:02.580Z,10.7
2019-01-05T09:38:53.455Z,10.7
2019-01-05T09:39:42.711Z,10.7
2019-01-05T09:40:32.862Z,10.7
2019-01-05T09:41:23.605Z,10.7
2019-01-05T09:42:13.270Z,10.7
2019-01-05T09:43:02.998Z,10.7
2019-01-05T09:43:54.040Z,10.6
2019-01-05T09:44:42.990Z,10.7
2019-01-05T09:45:33.920Z,10.7
2019-01-05T09:46:22.840Z,10.7
2019-01-05T09:47:13.673Z,10.7
2019-01-05T09:48:04.436Z,10.7
2019-01-05T09:48:53.827Z,10.7
2019-01-05T09:49:44.177Z,10.6
2019-01-05T09:50:32.575Z,10.6
2019-01-05T09:51:24.287Z,10.7
2019-01-05T09:52:14.644Z,10.7
2019-01-05T09:53:03.855Z,10.7
2019-01-05T09:53:54.185Z,10.7
2019-01-05T09:54:43.742Z,10.6
2019-01-05T09:55:33.492Z,10.6
2019-01-05T09:56:21.872Z,10.7
2019-01-05T09:57:13.806Z,10.6
2019-01-05T09:58:05.217Z,10.7
2019-01-05T09:58:53.965Z,10.7
2019-01-05T09:59:44.662Z,10.7
2019-01-05T10:00:34.359Z,10.7
2019-01-05T10:01:24.767Z,10.7
2019-01-05T10:02:14.232Z,10.7
2019-01-05T10:03:02.757Z,10.6
2019-01-05T10:03:54.967Z,10.7
2019-01-05T10:04:43.846Z,10.7
2019-01-05T10:05:35.884Z,10.7
2019-01-05T10:06:24.874Z,10.7
2019-01-05T10:07:15.676Z,10.7
2019-01-05T10:08:05.756Z,10.7
2019-01-05T10:08:55.254Z,10.7
2019-01-05T10:09:45.054Z,10.7
2019-01-05T10:10:34.804Z,10.7
2019-01-05T10:11:24.904Z,10.8
2019-01-05T10:12:14.899Z,10.8
2019-01-05T10:13:06.142Z,10.8
2019-01-05T10:13:55.586Z,10.8
2019-01-05T10:14:45.638Z,10.8
2019-01-05T10:15:36.014Z,10.8
2019-01-05T10:16:25.778Z,10.8
2019-01-05T10:17:15.566Z,10.8
2019-01-05T10:18:07.301Z,10.8
2019-01-05T10:18:54.550Z,10.8
2019-01-05T10:19:46.226Z,10.8
2019-01-05T10:20:35.206Z,10.8
2019-01-05T10:21:25.573Z,10.8
2019-01-05T10:22:16.193Z,10.8
2019-01-05T10:23:07.041Z,10.8
2019-01-05T10:23:56.823Z,10.8
2019-01-05T10:24:45.533Z,10.8
2019-01-05T10:25:35.813Z,10.8
2019-01-05T10:26:25.938Z,10.9
2019-01-05T10:27:15.390Z,10.9
2019-01-05T10:28:06.055Z,10.9
2019-01-05T10:28:56.373Z,10.9
2019-01-05T10:29:46.652Z,10.9
2019-01-05T10:30:36.738Z,10.9
2019-01-05T10:31:26.758Z,10.9
2019-01-05T10:32:16.791Z,10.9
2019-01-05T10:33:06.437Z,10.9
2019-01-05T10:33:57.242Z,10.9
2019-01-05T10:34:46.990Z,10.9
2019-01-05T10:35:36.805Z,10.9
2019-01-05T10:36:26.527Z,10.9
2019-01-05T10:37:16.337Z,11
2019-01-05T10:38:06.939Z,11
2019-01-05T10:38:57.237Z,11
2019-01-05T10:39:47.324Z,11
2019-01-05T10:40:37.102Z,11
2019-01-05T10:41:26.936Z,11
2019-01-05T10:42:17.077Z,11
2019-01-05T10:43:07.354Z,11.1
2019-01-05T10:43:57.922Z,11.1
2019-01-05T10:44:46.573Z,11.1
2019-01-05T10:45:38.010Z,11.1
2019-01-05T10:46:27.229Z,11.1
2019-01-05T10:47:17.546Z,11.1
2019-01-05T10:48:08.489Z,11.1
2019-01-05T10:48:58.245Z,11.1
2019-01-05T10:49:47.217Z,11.1
2019-01-05T10:50:37.256Z,11.1
2019-01-05T10:51:27.301Z,11.2
2019-01-05T10:52:16.831Z,11.2
2019-01-05T10:53:07.156Z,11.2
2019-01-05T10:53:57.791Z,11.2
2019-01-05T10:54:47.783Z,11.3
2019-01-05T10:55:38.143Z,11.2
2019-01-05T10:56:27.088Z,11.3
2019-01-05T10:57:18.671Z,11.3
2019-01-05T10:58:08.098Z,11.3
2019-01-05T10:58:59.191Z,11.3
2019-01-05T10:59:48.698Z,11.3
2019-01-05T11:00:38.478Z,11.3
2019-01-05T11:01:28.931Z,11.3
2019-01-05T11:02:18.676Z,11.3
2019-01-05T11:03:08.136Z,11.4
2019-01-05T11:04:00.518Z,11.4
2019-01-05T11:04:48.786Z,11.4
2019-01-05T11:05:38.071Z,11.4
2019-01-05T11:06:28.385Z,11.4
2019-01-05T11:07:19.203Z,11.4
2019-01-05T11:08:08.706Z,11.4
2019-01-05T11:08:59.378Z,11.4
2019-01-05T11:09:47.657Z,11.4
2019-01-05T11:10:39.409Z,11.4
2019-01-05T11:11:29.202Z,11.4
2019-01-05T11:12:19.543Z,11.4
2019-01-05T11:13:08.308Z,11.5
2019-01-05T11:13:59.923Z,11.5
2019-01-05T11:14:50.870Z,11.5
2019-01-05T11:15:39.475Z,11.6
2019-01-05T11:16:29.575Z,11.6
2019-01-05T11:17:20.025Z,11.6
2019-01-05T11:18:10.492Z,11.6
2019-01-05T11:19:01.909Z,11.6
2019-01-05T11:19:50.048Z,11.6
2019-01-05T11:20:44.147Z,11.6
2019-01-05T11:21:30.790Z,11.6
2019-01-05T11:22:20.360Z,11.6
2019-01-05T11:23:10.588Z,11.6
2019-01-05T11:24:00.983Z,11.7
2019-01-05T11:24:49.572Z,11.7
2019-01-05T11:25:40.257Z,11.7
2019-01-05T11:26:30.599Z,11.7
2019-01-05T11:27:20.299Z,11.7
2019-01-05T11:28:10.395Z,11.8
2019-01-05T11:29:00.472Z,11.8
2019-01-05T11:29:50.789Z,11.8
2019-01-05T11:30:39.988Z,11.8
2019-01-05T11:31:31.317Z,11.8
2019-01-05T11:32:22.147Z,11.8
2019-01-05T11:33:11.363Z,11.8
2019-01-05T11:34:01.966Z,11.8
2019-01-05T11:34:51.133Z,11.8
2019-01-05T11:35:40.911Z,11.9
2019-01-05T11:36:31.275Z,11.9
2019-01-05T11:37:20.745Z,11.9
2019-01-05T11:38:11.361Z,11.9
2019-01-05T11:39:02.568Z,11.9
2019-01-05T11:39:51.216Z,11.9
2019-01-05T11:40:40.731Z,11.9
2019-01-05T11:41:31.871Z,11.9
2019-01-05T11:42:21.764Z,11.9
2019-01-05T11:43:11.789Z,11.9
2019-01-05T11:44:01.571Z,12
2019-01-05T11:44:51.550Z,12
2019-01-05T11:45:41.469Z,12
2019-01-05T11:46:32.318Z,12
2019-01-05T11:47:22.270Z,12
2019-01-05T11:48:12.590Z,12.1
2019-01-05T11:49:02.148Z,12
2019-01-05T11:49:53.001Z,12.1
2019-01-05T11:50:41.895Z,12.1
2019-01-05T11:51:31.767Z,12.1
2019-01-05T11:52:22.065Z,12.1
2019-01-05T11:53:12.369Z,12.1
2019-01-05T11:54:02.820Z,12.1
2019-01-05T11:54:51.950Z,12.1
2019-01-05T11:55:42.601Z,12.1
2019-01-05T11:56:32.623Z,12.1
2019-01-05T11:57:22.753Z,12.1